Terminal Aerodrome Forecast
Issued by NWS

Home | Current Version | Previous Version | Graphics & Text | Print | Product List | Glossary On
Versions: 1 2 3 4 5 6 7 8 9 10 11 12
000
FTUS43 KOAX 301736
TAFCDR
TAF
KCDR 301736Z 3018/0118 31024G32KT P6SM OVC100
     FM302000 30016G25KT P6SM BKN100
     FM010100 28007KT P6SM SCT100=

USA.gov is the U.S. government's official web portal to all federal, state and local government web resources and services.